sensor_id;sensor_type;location;lat;lon;timestamp;temperature;humidity
45803;DHT22;31504;51.716;9.184;2024-01-10T00:01:35;19.10;34.40
45803;DHT22;31504;51.716;9.184;2024-01-10T00:04:35;19.10;33.70
45803;DHT22;31504;51.716;9.184;2024-01-10T00:07:36;19.10;33.70
45803;DHT22;31504;51.716;9.184;2024-01-10T00:10:36;19.10;33.70
45803;DHT22;31504;51.716;9.184;2024-01-10T00:13:37;19.10;33.70
45803;DHT22;31504;51.716;9.184;2024-01-10T00:16:37;19.10;33.70
45803;DHT22;31504;51.716;9.184;2024-01-10T00:19:38;19.10;33.70
45803;DHT22;31504;51.716;9.184;2024-01-10T00:22:38;19.10;33.60
45803;DHT22;31504;51.716;9.184;2024-01-10T00:25:38;19.10;33.70
45803;DHT22;31504;51.716;9.184;2024-01-10T00:28:39;19.10;33.60
45803;DHT22;31504;51.716;9.184;2024-01-10T00:31:40;19.10;33.70
45803;DHT22;31504;51.716;9.184;2024-01-10T00:34:40;19.10;33.60
45803;DHT22;31504;51.716;9.184;2024-01-10T00:37:40;19.10;33.60
45803;DHT22;31504;51.716;9.184;2024-01-10T00:40:41;19.10;33.60
45803;DHT22;31504;51.716;9.184;2024-01-10T00:43:42;19.10;33.70
45803;DHT22;31504;51.716;9.184;2024-01-10T00:46:42;19.10;33.70
45803;DHT22;31504;51.716;9.184;2024-01-10T00:49:43;19.10;33.60
45803;DHT22;31504;51.716;9.184;2024-01-10T00:52:44;19.10;33.60
45803;DHT22;31504;51.716;9.184;2024-01-10T00:55:44;19.10;34.20
45803;DHT22;31504;51.716;9.184;2024-01-10T00:58:45;19.00;33.60
45803;DHT22;31504;51.716;9.184;2024-01-10T01:01:45;19.10;33.60
45803;DHT22;31504;51.716;9.184;2024-01-10T01:04:46;19.10;33.60
45803;DHT22;31504;51.716;9.184;2024-01-10T01:07:46;19.00;33.50
45803;DHT22;31504;51.716;9.184;2024-01-10T01:10:46;19.10;33.60
45803;DHT22;31504;51.716;9.184;2024-01-10T01:13:47;19.10;33.50
45803;DHT22;31504;51.716;9.184;2024-01-10T01:16:47;19.10;33.50
45803;DHT22;31504;51.716;9.184;2024-01-10T01:19:48;19.00;33.40
45803;DHT22;31504;51.716;9.184;2024-01-10T01:22:49;19.00;33.50
45803;DHT22;31504;51.716;9.184;2024-01-10T01:25:49;19.10;33.50
45803;DHT22;31504;51.716;9.184;2024-01-10T01:28:50;19.10;33.50
45803;DHT22;31504;51.716;9.184;2024-01-10T01:31:51;19.10;33.50
45803;DHT22;31504;51.716;9.184;2024-01-10T01:34:52;19.10;33.50
45803;DHT22;31504;51.716;9.184;2024-01-10T01:37:53;19.10;33.40
45803;DHT22;31504;51.716;9.184;2024-01-10T01:40:53;19.10;33.40
45803;DHT22;31504;51.716;9.184;2024-01-10T01:43:54;19.10;33.40
45803;DHT22;31504;51.716;9.184;2024-01-10T01:46:54;19.00;33.40
45803;DHT22;31504;51.716;9.184;2024-01-10T01:49:55;19.00;33.40
45803;DHT22;31504;51.716;9.184;2024-01-10T01:52:56;19.00;33.40
45803;DHT22;31504;51.716;9.184;2024-01-10T01:55:56;19.00;33.40
45803;DHT22;31504;51.716;9.184;2024-01-10T01:58:57;19.00;33.40
45803;DHT22;31504;51.716;9.184;2024-01-10T02:01:57;19.00;33.40
45803;DHT22;31504;51.716;9.184;2024-01-10T02:05:01;19.00;33.40
45803;DHT22;31504;51.716;9.184;2024-01-10T02:08:01;19.00;33.40
45803;DHT22;31504;51.716;9.184;2024-01-10T02:11:02;19.00;33.40
45803;DHT22;31504;51.716;9.184;2024-01-10T02:14:03;19.00;33.30
45803;DHT22;31504;51.716;9.184;2024-01-10T02:17:03;19.10;33.40
45803;DHT22;31504;51.716;9.184;2024-01-10T02:20:07;19.00;33.40
45803;DHT22;31504;51.716;9.184;2024-01-10T02:23:07;19.00;33.30
45803;DHT22;31504;51.716;9.184;2024-01-10T02:26:08;19.00;33.30
45803;DHT22;31504;51.716;9.184;2024-01-10T02:29:08;19.00;33.30
45803;DHT22;31504;51.716;9.184;2024-01-10T02:32:09;19.00;33.30
45803;DHT22;31504;51.716;9.184;2024-01-10T02:35:09;19.00;33.30
45803;DHT22;31504;51.716;9.184;2024-01-10T02:38:10;19.00;33.30
45803;DHT22;31504;51.716;9.184;2024-01-10T02:41:10;19.00;33.30
45803;DHT22;31504;51.716;9.184;2024-01-10T02:44:10;19.00;33.30
45803;DHT22;31504;51.716;9.184;2024-01-10T02:47:11;19.00;33.30
45803;DHT22;31504;51.716;9.184;2024-01-10T02:50:12;19.00;33.30
45803;DHT22;31504;51.716;9.184;2024-01-10T02:53:12;19.00;33.30
45803;DHT22;31504;51.716;9.184;2024-01-10T02:56:13;18.90;33.20
45803;DHT22;31504;51.716;9.184;2024-01-10T02:59:13;18.90;33.20
45803;DHT22;31504;51.716;9.184;2024-01-10T03:02:14;19.00;33.20
45803;DHT22;31504;51.716;9.184;2024-01-10T03:05:14;19.00;33.10
45803;DHT22;31504;51.716;9.184;2024-01-10T03:08:15;19.00;33.10
45803;DHT22;31504;51.716;9.184;2024-01-10T03:11:15;19.00;33.10
45803;DHT22;31504;51.716;9.184;2024-01-10T03:14:16;18.90;33.00
45803;DHT22;31504;51.716;9.184;2024-01-10T03:17:16;19.00;33.00
45803;DHT22;31504;51.716;9.184;2024-01-10T03:20:16;19.00;32.90
45803;DHT22;31504;51.716;9.184;2024-01-10T03:23:17;19.00;32.90
45803;DHT22;31504;51.716;9.184;2024-01-10T03:26:17;19.00;32.90
45803;DHT22;31504;51.716;9.184;2024-01-10T03:29:18;18.90;32.90
45803;DHT22;31504;51.716;9.184;2024-01-10T03:32:18;18.90;32.80
45803;DHT22;31504;51.716;9.184;2024-01-10T03:35:19;18.90;32.80
45803;DHT22;31504;51.716;9.184;2024-01-10T03:38:19;18.90;32.80
45803;DHT22;31504;51.716;9.184;2024-01-10T03:41:20;18.90;32.80
45803;DHT22;31504;51.716;9.184;2024-01-10T03:44:20;18.90;32.80
45803;DHT22;31504;51.716;9.184;2024-01-10T03:47:21;18.90;32.80
45803;DHT22;31504;51.716;9.184;2024-01-10T03:50:21;18.80;32.70
45803;DHT22;31504;51.716;9.184;2024-01-10T03:53:21;18.90;32.70
45803;DHT22;31504;51.716;9.184;2024-01-10T03:56:22;18.80;32.70
45803;DHT22;31504;51.716;9.184;2024-01-10T03:59:22;18.90;32.70
45803;DHT22;31504;51.716;9.184;2024-01-10T04:02:23;18.90;32.80
45803;DHT22;31504;51.716;9.184;2024-01-10T04:05:23;18.90;32.90
45803;DHT22;31504;51.716;9.184;2024-01-10T04:08:25;18.90;32.90
45803;DHT22;31504;51.716;9.184;2024-01-10T04:11:25;18.90;32.90
45803;DHT22;31504;51.716;9.184;2024-01-10T04:14:26;18.90;32.80
45803;DHT22;31504;51.716;9.184;2024-01-10T04:17:27;18.90;32.80
45803;DHT22;31504;51.716;9.184;2024-01-10T04:20:27;18.90;32.90
45803;DHT22;31504;51.716;9.184;2024-01-10T04:23:27;18.90;32.90
45803;DHT22;31504;51.716;9.184;2024-01-10T04:26:28;18.90;32.90
45803;DHT22;31504;51.716;9.184;2024-01-10T04:29:28;19.00;32.80
45803;DHT22;31504;51.716;9.184;2024-01-10T04:32:29;18.90;32.80
45803;DHT22;31504;51.716;9.184;2024-01-10T04:35:29;18.90;32.90
45803;DHT22;31504;51.716;9.184;2024-01-10T04:38:30;18.90;32.90
45803;DHT22;31504;51.716;9.184;2024-01-10T04:41:30;18.90;32.90
45803;DHT22;31504;51.716;9.184;2024-01-10T04:44:30;18.90;32.80
45803;DHT22;31504;51.716;9.184;2024-01-10T04:47:31;18.90;32.80
45803;DHT22;31504;51.716;9.184;2024-01-10T04:50:31;18.90;32.80
45803;DHT22;31504;51.716;9.184;2024-01-10T04:53:32;18.90;32.80
45803;DHT22;31504;51.716;9.184;2024-01-10T04:56:32;18.90;32.80
45803;DHT22;31504;51.716;9.184;2024-01-10T04:59:33;18.90;32.80
45803;DHT22;31504;51.716;9.184;2024-01-10T05:02:33;18.90;32.80
45803;DHT22;31504;51.716;9.184;2024-01-10T05:05:34;18.90;32.70
45803;DHT22;31504;51.716;9.184;2024-01-10T05:08:34;18.90;32.80
45803;DHT22;31504;51.716;9.184;2024-01-10T05:11:35;18.80;32.70
45803;DHT22;31504;51.716;9.184;2024-01-10T05:14:36;18.80;32.80
45803;DHT22;31504;51.716;9.184;2024-01-10T05:17:36;18.80;32.70
45803;DHT22;31504;51.716;9.184;2024-01-10T05:20:36;18.90;32.80
45803;DHT22;31504;51.716;9.184;2024-01-10T05:23:37;18.90;32.80
45803;DHT22;31504;51.716;9.184;2024-01-10T05:26:39;18.80;32.70
45803;DHT22;31504;51.716;9.184;2024-01-10T05:29:40;18.80;32.70
45803;DHT22;31504;51.716;9.184;2024-01-10T05:32:40;18.90;32.80
45803;DHT22;31504;51.716;9.184;2024-01-10T05:35:41;18.80;32.80
45803;DHT22;31504;51.716;9.184;2024-01-10T05:38:42;18.80;32.70
45803;DHT22;31504;51.716;9.184;2024-01-10T05:41:42;18.80;32.80
45803;DHT22;31504;51.716;9.184;2024-01-10T05:44:43;18.80;32.70
45803;DHT22;31504;51.716;9.184;2024-01-10T05:47:44;18.80;32.80
45803;DHT22;31504;51.716;9.184;2024-01-10T05:50:44;18.80;32.80
45803;DHT22;31504;51.716;9.184;2024-01-10T05:53:45;18.80;32.70
45803;DHT22;31504;51.716;9.184;2024-01-10T05:56:46;18.80;32.70
45803;DHT22;31504;51.716;9.184;2024-01-10T05:59:46;18.90;32.70
45803;DHT22;31504;51.716;9.184;2024-01-10T06:02:47;18.80;32.70
45803;DHT22;31504;51.716;9.184;2024-01-10T06:05:47;18.90;33.10
45803;DHT22;31504;51.716;9.184;2024-01-10T06:08:47;18.90;32.40
45803;DHT22;31504;51.716;9.184;2024-01-10T06:11:48;18.90;32.40
45803;DHT22;31504;51.716;9.184;2024-01-10T06:14:49;18.90;32.40
45803;DHT22;31504;51.716;9.184;2024-01-10T06:17:50;18.90;32.30
45803;DHT22;31504;51.716;9.184;2024-01-10T06:20:50;18.90;32.30
45803;DHT22;31504;51.716;9.184;2024-01-10T06:23:50;18.90;32.20
45803;DHT22;31504;51.716;9.184;2024-01-10T06:26:51;18.90;32.30
45803;DHT22;31504;51.716;9.184;2024-01-10T06:29:52;18.80;32.20
45803;DHT22;31504;51.716;9.184;2024-01-10T06:32:52;18.80;32.20
45803;DHT22;31504;51.716;9.184;2024-01-10T06:35:53;18.80;32.20
45803;DHT22;31504;51.716;9.184;2024-01-10T06:38:54;18.90;32.20
45803;DHT22;31504;51.716;9.184;2024-01-10T06:41:55;18.80;32.20
45803;DHT22;31504;51.716;9.184;2024-01-10T06:44:55;18.80;32.20
45803;DHT22;31504;51.716;9.184;2024-01-10T06:47:56;18.80;32.20
45803;DHT22;31504;51.716;9.184;2024-01-10T06:50:56;18.80;32.20
45803;DHT22;31504;51.716;9.184;2024-01-10T06:53:56;18.80;32.20
45803;DHT22;31504;51.716;9.184;2024-01-10T06:57:03;18.80;32.30
45803;DHT22;31504;51.716;9.184;2024-01-10T07:00:04;18.80;32.30
45803;DHT22;31504;51.716;9.184;2024-01-10T07:03:07;18.70;32.20
45803;DHT22;31504;51.716;9.184;2024-01-10T07:06:07;18.80;32.30
45803;DHT22;31504;51.716;9.184;2024-01-10T07:09:08;18.80;32.30
45803;DHT22;31504;51.716;9.184;2024-01-10T07:12:08;18.80;32.20
45803;DHT22;31504;51.716;9.184;2024-01-10T07:15:09;18.80;32.20
45803;DHT22;31504;51.716;9.184;2024-01-10T07:18:09;18.80;32.30
45803;DHT22;31504;51.716;9.184;2024-01-10T07:21:10;18.80;32.80
45803;DHT22;31504;51.716;9.184;2024-01-10T07:24:10;18.80;32.30
45803;DHT22;31504;51.716;9.184;2024-01-10T07:27:12;18.80;32.20
45803;DHT22;31504;51.716;9.184;2024-01-10T07:30:14;18.80;32.40
45803;DHT22;31504;51.716;9.184;2024-01-10T07:33:15;18.80;32.50
45803;DHT22;31504;51.716;9.184;2024-01-10T07:36:15;18.90;32.70
45803;DHT22;31504;51.716;9.184;2024-01-10T07:39:16;19.00;32.80
45803;DHT22;31504;51.716;9.184;2024-01-10T07:42:18;19.00;32.80
45803;DHT22;31504;51.716;9.184;2024-01-10T07:45:18;19.10;32.90
45803;DHT22;31504;51.716;9.184;2024-01-10T07:48:19;19.10;32.80
45803;DHT22;31504;51.716;9.184;2024-01-10T07:51:20;19.10;33.00
45803;DHT22;31504;51.716;9.184;2024-01-10T07:54:20;19.20;32.90
45803;DHT22;31504;51.716;9.184;2024-01-10T07:57:21;19.20;32.90
45803;DHT22;31504;51.716;9.184;2024-01-10T08:00:21;19.20;32.90
45803;DHT22;31504;51.716;9.184;2024-01-10T08:03:22;19.20;32.90
45803;DHT22;31504;51.716;9.184;2024-01-10T08:06:23;19.20;32.90
45803;DHT22;31504;51.716;9.184;2024-01-10T08:09:23;19.20;33.00
45803;DHT22;31504;51.716;9.184;2024-01-10T08:12:24;19.20;33.10
45803;DHT22;31504;51.716;9.184;2024-01-10T08:15:24;19.20;33.10
45803;DHT22;31504;51.716;9.184;2024-01-10T08:18:25;19.20;33.00
45803;DHT22;31504;51.716;9.184;2024-01-10T08:21:25;19.10;33.00
45803;DHT22;31504;51.716;9.184;2024-01-10T08:24:26;19.10;33.10
45803;DHT22;31504;51.716;9.184;2024-01-10T08:27:26;19.10;33.10
45803;DHT22;31504;51.716;9.184;2024-01-10T08:30:27;19.10;33.20
45803;DHT22;31504;51.716;9.184;2024-01-10T08:33:27;19.10;33.30
45803;DHT22;31504;51.716;9.184;2024-01-10T08:36:28;19.10;33.40
45803;DHT22;31504;51.716;9.184;2024-01-10T08:39:28;19.10;33.50
45803;DHT22;31504;51.716;9.184;2024-01-10T08:42:30;19.10;33.40
45803;DHT22;31504;51.716;9.184;2024-01-10T08:45:31;19.20;33.40
45803;DHT22;31504;51.716;9.184;2024-01-10T08:48:31;19.20;33.50
45803;DHT22;31504;51.716;9.184;2024-01-10T08:51:32;19.20;33.40
45803;DHT22;31504;51.716;9.184;2024-01-10T08:54:32;19.20;33.50
45803;DHT22;31504;51.716;9.184;2024-01-10T08:57:34;19.20;33.40
45803;DHT22;31504;51.716;9.184;2024-01-10T09:00:34;19.30;33.40
45803;DHT22;31504;51.716;9.184;2024-01-10T09:03:35;19.20;33.40
45803;DHT22;31504;51.716;9.184;2024-01-10T09:06:35;19.20;33.40
45803;DHT22;31504;51.716;9.184;2024-01-10T09:09:39;19.20;33.40
45803;DHT22;31504;51.716;9.184;2024-01-10T09:12:39;19.20;33.40
45803;DHT22;31504;51.716;9.184;2024-01-10T09:15:43;19.20;33.40
45803;DHT22;31504;51.716;9.184;2024-01-10T09:18:44;19.20;33.40
45803;DHT22;31504;51.716;9.184;2024-01-10T09:21:44;19.10;33.30
45803;DHT22;31504;51.716;9.184;2024-01-10T09:24:46;19.20;33.30
45803;DHT22;31504;51.716;9.184;2024-01-10T09:27:46;19.10;33.30
45803;DHT22;31504;51.716;9.184;2024-01-10T09:30:47;19.10;33.30
45803;DHT22;31504;51.716;9.184;2024-01-10T09:33:47;19.10;33.30
45803;DHT22;31504;51.716;9.184;2024-01-10T09:36:48;19.20;33.30
45803;DHT22;31504;51.716;9.184;2024-01-10T09:39:48;19.20;33.30
45803;DHT22;31504;51.716;9.184;2024-01-10T09:42:49;19.20;33.30
45803;DHT22;31504;51.716;9.184;2024-01-10T09:45:51;19.20;33.30
45803;DHT22;31504;51.716;9.184;2024-01-10T09:48:53;19.20;33.20
45803;DHT22;31504;51.716;9.184;2024-01-10T09:51:53;19.20;33.20
45803;DHT22;31504;51.716;9.184;2024-01-10T09:54:57;19.20;33.30
45803;DHT22;31504;51.716;9.184;2024-01-10T09:57:58;19.20;33.30
45803;DHT22;31504;51.716;9.184;2024-01-10T10:01:01;19.30;33.90
45803;DHT22;31504;51.716;9.184;2024-01-10T10:04:04;19.20;33.30
45803;DHT22;31504;51.716;9.184;2024-01-10T10:07:06;19.30;33.30
45803;DHT22;31504;51.716;9.184;2024-01-10T10:10:06;19.20;33.40
45803;DHT22;31504;51.716;9.184;2024-01-10T10:13:09;19.20;33.40
45803;DHT22;31504;51.716;9.184;2024-01-10T10:16:11;19.20;33.50
45803;DHT22;31504;51.716;9.184;2024-01-10T10:19:13;19.20;33.40
45803;DHT22;31504;51.716;9.184;2024-01-10T10:22:22;19.20;33.50
45803;DHT22;31504;51.716;9.184;2024-01-10T10:25:22;19.20;33.50
45803;DHT22;31504;51.716;9.184;2024-01-10T10:28:28;19.10;33.50
45803;DHT22;31504;51.716;9.184;2024-01-10T10:31:28;19.10;33.60
45803;DHT22;31504;51.716;9.184;2024-01-10T10:34:31;19.20;33.60
45803;DHT22;31504;51.716;9.184;2024-01-10T10:37:35;19.20;33.50
45803;DHT22;31504;51.716;9.184;2024-01-10T10:40:35;19.20;33.60
45803;DHT22;31504;51.716;9.184;2024-01-10T10:43:36;19.20;33.50
45803;DHT22;31504;51.716;9.184;2024-01-10T10:46:37;19.20;33.60
45803;DHT22;31504;51.716;9.184;2024-01-10T10:49:42;19.20;33.60
45803;DHT22;31504;51.716;9.184;2024-01-10T10:52:44;19.20;33.60
45803;DHT22;31504;51.716;9.184;2024-01-10T10:55:46;19.20;33.60
45803;DHT22;31504;51.716;9.184;2024-01-10T10:58:47;19.20;33.50
45803;DHT22;31504;51.716;9.184;2024-01-10T11:01:49;19.20;33.50
45803;DHT22;31504;51.716;9.184;2024-01-10T11:04:50;19.20;33.50
45803;DHT22;31504;51.716;9.184;2024-01-10T11:07:54;19.20;33.50
45803;DHT22;31504;51.716;9.184;2024-01-10T11:10:54;19.20;33.60
45803;DHT22;31504;51.716;9.184;2024-01-10T11:17:26;19.20;33.60
45803;DHT22;31504;51.716;9.184;2024-01-10T11:20:43;19.20;33.60
45803;DHT22;31504;51.716;9.184;2024-01-10T11:23:47;19.20;33.70
45803;DHT22;31504;51.716;9.184;2024-01-10T11:26:48;19.10;33.80
45803;DHT22;31504;51.716;9.184;2024-01-10T11:29:50;19.00;33.80
45803;DHT22;31504;51.716;9.184;2024-01-10T11:32:50;19.00;33.80
45803;DHT22;31504;51.716;9.184;2024-01-10T11:39:10;18.90;33.80
45803;DHT22;31504;51.716;9.184;2024-01-10T11:42:21;18.90;33.70
45803;DHT22;31504;51.716;9.184;2024-01-10T11:48:34;18.90;33.60
45803;DHT22;31504;51.716;9.184;2024-01-10T11:51:35;19.00;33.50
45803;DHT22;31504;51.716;9.184;2024-01-10T11:54:43;19.00;33.50
45803;DHT22;31504;51.716;9.184;2024-01-10T11:57:44;19.00;33.60
45803;DHT22;31504;51.716;9.184;2024-01-10T12:01:01;19.10;33.70
45803;DHT22;31504;51.716;9.184;2024-01-10T12:04:02;19.20;33.90
45803;DHT22;31504;51.716;9.184;2024-01-10T12:07:04;19.20;33.90
45803;DHT22;31504;51.716;9.184;2024-01-10T12:10:06;19.30;33.90
45803;DHT22;31504;51.716;9.184;2024-01-10T12:13:07;19.30;33.80
45803;DHT22;31504;51.716;9.184;2024-01-10T12:16:07;19.30;33.50
45803;DHT22;31504;51.716;9.184;2024-01-10T12:19:08;19.30;33.40
45803;DHT22;31504;51.716;9.184;2024-01-10T12:22:08;19.40;33.40
45803;DHT22;31504;51.716;9.184;2024-01-10T12:25:09;19.40;33.30
45803;DHT22;31504;51.716;9.184;2024-01-10T12:28:10;19.40;33.40
45803;DHT22;31504;51.716;9.184;2024-01-10T12:31:10;19.40;33.40
45803;DHT22;31504;51.716;9.184;2024-01-10T12:34:11;19.40;33.40
45803;DHT22;31504;51.716;9.184;2024-01-10T12:37:11;19.40;33.40
45803;DHT22;31504;51.716;9.184;2024-01-10T12:40:11;19.40;33.50
45803;DHT22;31504;51.716;9.184;2024-01-10T12:43:14;19.40;33.50
45803;DHT22;31504;51.716;9.184;2024-01-10T12:46:14;19.40;33.60
45803;DHT22;31504;51.716;9.184;2024-01-10T12:49:15;19.40;33.70
45803;DHT22;31504;51.716;9.184;2024-01-10T12:52:16;19.40;33.70
45803;DHT22;31504;51.716;9.184;2024-01-10T12:55:16;19.40;33.60
45803;DHT22;31504;51.716;9.184;2024-01-10T12:58:17;19.40;33.60
45803;DHT22;31504;51.716;9.184;2024-01-10T13:01:18;19.50;33.60
45803;DHT22;31504;51.716;9.184;2024-01-10T13:04:18;19.60;33.70
45803;DHT22;31504;51.716;9.184;2024-01-10T13:07:19;19.60;33.60
45803;DHT22;31504;51.716;9.184;2024-01-10T13:10:19;19.60;33.50
45803;DHT22;31504;51.716;9.184;2024-01-10T13:13:20;19.70;33.50
45803;DHT22;31504;51.716;9.184;2024-01-10T13:16:22;19.60;33.60
45803;DHT22;31504;51.716;9.184;2024-01-10T13:19:22;19.60;33.60
45803;DHT22;31504;51.716;9.184;2024-01-10T13:22:23;19.60;33.60
45803;DHT22;31504;51.716;9.184;2024-01-10T13:25:23;19.60;33.60
45803;DHT22;31504;51.716;9.184;2024-01-10T13:28:23;19.60;33.60
45803;DHT22;31504;51.716;9.184;2024-01-10T13:31:24;19.60;33.60
45803;DHT22;31504;51.716;9.184;2024-01-10T13:34:25;19.60;33.50
45803;DHT22;31504;51.716;9.184;2024-01-10T13:37:26;19.60;33.50
45803;DHT22;31504;51.716;9.184;2024-01-10T13:40:29;19.60;33.50
45803;DHT22;31504;51.716;9.184;2024-01-10T13:43:29;19.60;33.60
45803;DHT22;31504;51.716;9.184;2024-01-10T13:46:30;19.60;33.60
45803;DHT22;31504;51.716;9.184;2024-01-10T13:49:30;19.70;33.50
45803;DHT22;31504;51.716;9.184;2024-01-10T13:52:31;19.50;33.40
45803;DHT22;31504;51.716;9.184;2024-01-10T13:55:32;19.50;33.30
45803;DHT22;31504;51.716;9.184;2024-01-10T13:58:32;19.50;32.90
45803;DHT22;31504;51.716;9.184;2024-01-10T14:01:33;19.50;32.80
45803;DHT22;31504;51.716;9.184;2024-01-10T14:04:36;19.50;32.80
45803;DHT22;31504;51.716;9.184;2024-01-10T14:07:36;19.50;32.70
45803;DHT22;31504;51.716;9.184;2024-01-10T14:10:37;19.40;32.70
45803;DHT22;31504;51.716;9.184;2024-01-10T14:13:39;19.40;32.90
45803;DHT22;31504;51.716;9.184;2024-01-10T14:16:39;19.40;32.90
45803;DHT22;31504;51.716;9.184;2024-01-10T14:19:41;19.30;32.90
45803;DHT22;31504;51.716;9.184;2024-01-10T14:22:43;19.30;33.00
45803;DHT22;31504;51.716;9.184;2024-01-10T14:25:44;19.40;33.00
45803;DHT22;31504;51.716;9.184;2024-01-10T14:28:44;19.30;32.90
45803;DHT22;31504;51.716;9.184;2024-01-10T14:31:45;19.30;33.60
45803;DHT22;31504;51.716;9.184;2024-01-10T14:34:45;19.30;33.00
45803;DHT22;31504;51.716;9.184;2024-01-10T14:37:46;19.30;33.00
45803;DHT22;31504;51.716;9.184;2024-01-10T14:40:47;19.40;33.00
45803;DHT22;31504;51.716;9.184;2024-01-10T14:43:47;19.40;33.10
45803;DHT22;31504;51.716;9.184;2024-01-10T14:46:48;19.40;33.00
45803;DHT22;31504;51.716;9.184;2024-01-10T14:49:49;19.50;33.20
45803;DHT22;31504;51.716;9.184;2024-01-10T14:52:49;19.40;33.20
45803;DHT22;31504;51.716;9.184;2024-01-10T14:55:50;19.40;33.30
45803;DHT22;31504;51.716;9.184;2024-01-10T14:58:51;19.40;33.40
45803;DHT22;31504;51.716;9.184;2024-01-10T15:01:51;19.40;33.40
45803;DHT22;31504;51.716;9.184;2024-01-10T15:04:52;19.40;33.50
45803;DHT22;31504;51.716;9.184;2024-01-10T15:07:52;19.40;33.60
45803;DHT22;31504;51.716;9.184;2024-01-10T15:10:53;19.30;33.60
45803;DHT22;31504;51.716;9.184;2024-01-10T15:13:53;19.30;33.70
45803;DHT22;31504;51.716;9.184;2024-01-10T15:16:54;19.30;33.70
45803;DHT22;31504;51.716;9.184;2024-01-10T15:19:56;19.30;33.70
45803;DHT22;31504;51.716;9.184;2024-01-10T15:22:57;19.40;33.70
45803;DHT22;31504;51.716;9.184;2024-01-10T15:25:57;19.40;33.80
45803;DHT22;31504;51.716;9.184;2024-01-10T15:28:58;19.40;33.80
45803;DHT22;31504;51.716;9.184;2024-01-10T15:31:59;19.40;33.80
45803;DHT22;31504;51.716;9.184;2024-01-10T15:34:59;19.50;33.80
45803;DHT22;31504;51.716;9.184;2024-01-10T15:38:04;19.50;33.80
45803;DHT22;31504;51.716;9.184;2024-01-10T15:41:07;19.50;33.90
45803;DHT22;31504;51.716;9.184;2024-01-10T15:44:08;19.50;34.00
45803;DHT22;31504;51.716;9.184;2024-01-10T15:47:09;19.50;34.10
45803;DHT22;31504;51.716;9.184;2024-01-10T15:50:10;19.50;34.10
45803;DHT22;31504;51.716;9.184;2024-01-10T15:53:10;19.40;34.20
45803;DHT22;31504;51.716;9.184;2024-01-10T15:56:11;19.40;34.20
45803;DHT22;31504;51.716;9.184;2024-01-10T15:59:12;19.40;34.40
45803;DHT22;31504;51.716;9.184;2024-01-10T16:02:13;19.40;34.60
45803;DHT22;31504;51.716;9.184;2024-01-10T16:05:13;19.40;34.80
45803;DHT22;31504;51.716;9.184;2024-01-10T16:08:14;19.40;35.10
45803;DHT22;31504;51.716;9.184;2024-01-10T16:11:14;19.40;35.30
45803;DHT22;31504;51.716;9.184;2024-01-10T16:14:15;19.40;35.60
45803;DHT22;31504;51.716;9.184;2024-01-10T16:17:15;19.40;35.90
45803;DHT22;31504;51.716;9.184;2024-01-10T16:20:16;19.50;36.20
45803;DHT22;31504;51.716;9.184;2024-01-10T16:23:16;19.50;36.40
45803;DHT22;31504;51.716;9.184;2024-01-10T16:26:17;19.50;36.50
45803;DHT22;31504;51.716;9.184;2024-01-10T16:29:18;19.50;36.70
45803;DHT22;31504;51.716;9.184;2024-01-10T16:32:20;19.50;36.90
45803;DHT22;31504;51.716;9.184;2024-01-10T16:35:20;19.50;37.10
45803;DHT22;31504;51.716;9.184;2024-01-10T16:38:21;19.50;37.20
45803;DHT22;31504;51.716;9.184;2024-01-10T16:41:21;19.50;37.30
45803;DHT22;31504;51.716;9.184;2024-01-10T16:44:22;19.50;37.40
45803;DHT22;31504;51.716;9.184;2024-01-10T16:47:22;19.50;37.50
45803;DHT22;31504;51.716;9.184;2024-01-10T16:50:23;19.50;37.70
45803;DHT22;31504;51.716;9.184;2024-01-10T16:53:23;19.50;37.80
45803;DHT22;31504;51.716;9.184;2024-01-10T16:56:25;19.50;37.90
45803;DHT22;31504;51.716;9.184;2024-01-10T16:59:26;19.50;37.90
45803;DHT22;31504;51.716;9.184;2024-01-10T17:02:26;19.60;37.90
45803;DHT22;31504;51.716;9.184;2024-01-10T17:05:27;19.50;37.80
45803;DHT22;31504;51.716;9.184;2024-01-10T17:08:27;19.50;37.70
45803;DHT22;31504;51.716;9.184;2024-01-10T17:11:27;19.50;37.60
45803;DHT22;31504;51.716;9.184;2024-01-10T17:14:28;19.50;37.60
45803;DHT22;31504;51.716;9.184;2024-01-10T17:17:28;19.50;38.10
45803;DHT22;31504;51.716;9.184;2024-01-10T17:20:29;19.50;37.50
45803;DHT22;31504;51.716;9.184;2024-01-10T17:23:30;19.50;37.50
45803;DHT22;31504;51.716;9.184;2024-01-10T17:26:30;19.50;37.50
45803;DHT22;31504;51.716;9.184;2024-01-10T17:29:31;19.50;37.60
45803;DHT22;31504;51.716;9.184;2024-01-10T17:32:32;19.50;37.80
45803;DHT22;31504;51.716;9.184;2024-01-10T17:35:32;19.60;37.80
45803;DHT22;31504;51.716;9.184;2024-01-10T17:38:33;19.50;37.80
45803;DHT22;31504;51.716;9.184;2024-01-10T17:41:34;19.50;38.00
45803;DHT22;31504;51.716;9.184;2024-01-10T17:44:35;19.50;38.00
45803;DHT22;31504;51.716;9.184;2024-01-10T17:47:37;19.50;38.00
45803;DHT22;31504;51.716;9.184;2024-01-10T17:50:38;19.50;38.10
45803;DHT22;31504;51.716;9.184;2024-01-10T17:53:38;19.50;38.10
45803;DHT22;31504;51.716;9.184;2024-01-10T17:56:39;19.60;38.10
45803;DHT22;31504;51.716;9.184;2024-01-10T17:59:40;19.50;38.30
45803;DHT22;31504;51.716;9.184;2024-01-10T18:02:40;19.50;38.30
45803;DHT22;31504;51.716;9.184;2024-01-10T18:05:40;19.60;38.50
45803;DHT22;31504;51.716;9.184;2024-01-10T18:08:43;19.60;38.40
45803;DHT22;31504;51.716;9.184;2024-01-10T18:11:43;19.60;38.40
45803;DHT22;31504;51.716;9.184;2024-01-10T18:14:44;19.60;38.50
45803;DHT22;31504;51.716;9.184;2024-01-10T18:17:45;19.50;38.60
45803;DHT22;31504;51.716;9.184;2024-01-10T18:20:46;19.50;38.50
45803;DHT22;31504;51.716;9.184;2024-01-10T18:23:46;19.50;38.50
45803;DHT22;31504;51.716;9.184;2024-01-10T18:26:47;19.50;38.40
45803;DHT22;31504;51.716;9.184;2024-01-10T18:29:47;19.50;38.30
45803;DHT22;31504;51.716;9.184;2024-01-10T18:32:47;19.50;38.30
45803;DHT22;31504;51.716;9.184;2024-01-10T18:35:48;19.50;38.20
45803;DHT22;31504;51.716;9.184;2024-01-10T18:38:51;19.50;38.20
45803;DHT22;31504;51.716;9.184;2024-01-10T18:41:51;19.50;38.20
45803;DHT22;31504;51.716;9.184;2024-01-10T18:44:52;19.60;38.20
45803;DHT22;31504;51.716;9.184;2024-01-10T18:47:52;19.50;38.20
45803;DHT22;31504;51.716;9.184;2024-01-10T18:50:53;19.50;38.30
45803;DHT22;31504;51.716;9.184;2024-01-10T18:53:53;19.50;38.20
45803;DHT22;31504;51.716;9.184;2024-01-10T18:56:54;19.50;38.20
45803;DHT22;31504;51.716;9.184;2024-01-10T18:59:54;19.40;38.20
45803;DHT22;31504;51.716;9.184;2024-01-10T19:02:55;19.50;38.20
45803;DHT22;31504;51.716;9.184;2024-01-10T19:05:58;19.50;38.10
45803;DHT22;31504;51.716;9.184;2024-01-10T19:08:58;19.50;38.00
45803;DHT22;31504;51.716;9.184;2024-01-10T19:11:59;19.50;37.90